sensor_id;sensor_type;location;lat;lon;timestamp;P1;durP1;ratioP1;P2;durP2;ratioP2
6505;SDS011;3286;49.858;8.768;2023-02-28T00:00:23;3.87;;;2.10;;
6505;SDS011;3286;49.858;8.768;2023-02-28T00:02:50;1.90;;;1.63;;
6505;SDS011;3286;49.858;8.768;2023-02-28T00:05:18;1.77;;;1.50;;
6505;SDS011;3286;49.858;8.768;2023-02-28T00:07:46;3.17;;;1.80;;
6505;SDS011;3286;49.858;8.768;2023-02-28T00:10:14;6.03;;;2.33;;
6505;SDS011;3286;49.858;8.768;2023-02-28T00:12:45;2.20;;;1.80;;
6505;SDS011;3286;49.858;8.768;2023-02-28T00:15:12;2.70;;;1.57;;
6505;SDS011;3286;49.858;8.768;2023-02-28T00:17:39;4.17;;;1.93;;
6505;SDS011;3286;49.858;8.768;2023-02-28T00:20:06;2.20;;;1.93;;
6505;SDS011;3286;49.858;8.768;2023-02-28T00:22:35;1.80;;;1.70;;
6505;SDS011;3286;49.858;8.768;2023-02-28T00:25:03;2.53;;;1.57;;
6505;SDS011;3286;49.858;8.768;2023-02-28T00:27:31;4.00;;;1.70;;
6505;SDS011;3286;49.858;8.768;2023-02-28T00:29:59;2.60;;;2.07;;
6505;SDS011;3286;49.858;8.768;2023-02-28T00:32:26;3.20;;;1.80;;
6505;SDS011;3286;49.858;8.768;2023-02-28T00:34:53;3.90;;;1.63;;
6505;SDS011;3286;49.858;8.768;2023-02-28T00:37:19;2.17;;;1.67;;
6505;SDS011;3286;49.858;8.768;2023-02-28T00:39:46;2.07;;;1.70;;
6505;SDS011;3286;49.858;8.768;2023-02-28T00:42:13;2.27;;;1.50;;
6505;SDS011;3286;49.858;8.768;2023-02-28T00:44:39;2.27;;;1.77;;
6505;SDS011;3286;49.858;8.768;2023-02-28T00:47:07;2.10;;;1.80;;
6505;SDS011;3286;49.858;8.768;2023-02-28T00:49:34;1.87;;;1.50;;
6505;SDS011;3286;49.858;8.768;2023-02-28T00:52:00;1.87;;;1.30;;
6505;SDS011;3286;49.858;8.768;2023-02-28T00:54:27;4.80;;;1.90;;
6505;SDS011;3286;49.858;8.768;2023-02-28T00:56:54;2.20;;;1.60;;
6505;SDS011;3286;49.858;8.768;2023-02-28T00:59:20;2.07;;;1.60;;
6505;SDS011;3286;49.858;8.768;2023-02-28T01:01:47;3.60;;;1.87;;
6505;SDS011;3286;49.858;8.768;2023-02-28T01:04:15;2.40;;;1.60;;
6505;SDS011;3286;49.858;8.768;2023-02-28T01:06:42;2.43;;;1.60;;
6505;SDS011;3286;49.858;8.768;2023-02-28T01:09:09;1.40;;;1.30;;
6505;SDS011;3286;49.858;8.768;2023-02-28T01:11:37;2.40;;;1.60;;
6505;SDS011;3286;49.858;8.768;2023-02-28T01:14:05;3.30;;;1.87;;
6505;SDS011;3286;49.858;8.768;2023-02-28T01:16:32;2.63;;;1.70;;
6505;SDS011;3286;49.858;8.768;2023-02-28T01:18:59;4.90;;;1.80;;
6505;SDS011;3286;49.858;8.768;2023-02-28T01:21:26;1.83;;;1.67;;
6505;SDS011;3286;49.858;8.768;2023-02-28T01:23:55;1.63;;;1.53;;
6505;SDS011;3286;49.858;8.768;2023-02-28T01:26:22;2.57;;;1.83;;
6505;SDS011;3286;49.858;8.768;2023-02-28T01:28:50;2.47;;;1.63;;
6505;SDS011;3286;49.858;8.768;2023-02-28T01:31:18;2.00;;;1.50;;
6505;SDS011;3286;49.858;8.768;2023-02-28T01:33:45;2.10;;;1.60;;
6505;SDS011;3286;49.858;8.768;2023-02-28T01:36:13;1.93;;;1.60;;
6505;SDS011;3286;49.858;8.768;2023-02-28T01:38:43;3.10;;;1.93;;
6505;SDS011;3286;49.858;8.768;2023-02-28T01:41:12;2.70;;;1.70;;
6505;SDS011;3286;49.858;8.768;2023-02-28T01:46:32;2.27;;;1.60;;
6505;SDS011;3286;49.858;8.768;2023-02-28T01:49:02;1.93;;;1.70;;
6505;SDS011;3286;49.858;8.768;2023-02-28T01:51:33;1.53;;;1.43;;
6505;SDS011;3286;49.858;8.768;2023-02-28T01:54:07;1.97;;;1.60;;
6505;SDS011;3286;49.858;8.768;2023-02-28T01:56:38;2.13;;;1.77;;
6505;SDS011;3286;49.858;8.768;2023-02-28T01:59:08;2.40;;;1.77;;
6505;SDS011;3286;49.858;8.768;2023-02-28T02:01:35;2.43;;;1.93;;
6505;SDS011;3286;49.858;8.768;2023-02-28T02:04:02;2.40;;;1.87;;
6505;SDS011;3286;49.858;8.768;2023-02-28T02:06:30;2.23;;;1.50;;
6505;SDS011;3286;49.858;8.768;2023-02-28T02:09:01;3.30;;;1.80;;
6505;SDS011;3286;49.858;8.768;2023-02-28T02:11:30;3.20;;;1.50;;
6505;SDS011;3286;49.858;8.768;2023-02-28T02:17:04;2.80;;;1.73;;
6505;SDS011;3286;49.858;8.768;2023-02-28T02:19:49;2.43;;;1.67;;
6505;SDS011;3286;49.858;8.768;2023-02-28T02:25:34;2.37;;;1.90;;
6505;SDS011;3286;49.858;8.768;2023-02-28T02:28:24;2.50;;;1.87;;
6505;SDS011;3286;49.858;8.768;2023-02-28T02:36:51;3.80;;;2.03;;
6505;SDS011;3286;49.858;8.768;2023-02-28T02:39:25;5.40;;;1.80;;
6505;SDS011;3286;49.858;8.768;2023-02-28T02:41:58;3.13;;;1.63;;
6505;SDS011;3286;49.858;8.768;2023-02-28T02:44:28;2.43;;;1.53;;
6505;SDS011;3286;49.858;8.768;2023-02-28T02:47:01;2.43;;;1.70;;
6505;SDS011;3286;49.858;8.768;2023-02-28T02:49:36;3.07;;;1.90;;
6505;SDS011;3286;49.858;8.768;2023-02-28T02:52:05;1.93;;;1.77;;
6505;SDS011;3286;49.858;8.768;2023-02-28T02:54:35;3.10;;;1.93;;
6505;SDS011;3286;49.858;8.768;2023-02-28T02:57:05;3.30;;;1.50;;
6505;SDS011;3286;49.858;8.768;2023-02-28T02:59:34;3.60;;;2.30;;
6505;SDS011;3286;49.858;8.768;2023-02-28T03:02:04;2.43;;;1.83;;
6505;SDS011;3286;49.858;8.768;2023-02-28T03:04:40;2.93;;;1.90;;
6505;SDS011;3286;49.858;8.768;2023-02-28T03:07:11;1.80;;;1.63;;
6505;SDS011;3286;49.858;8.768;2023-02-28T03:09:38;3.80;;;2.13;;
6505;SDS011;3286;49.858;8.768;2023-02-28T03:12:05;4.17;;;2.33;;
6505;SDS011;3286;49.858;8.768;2023-02-28T03:14:39;3.57;;;2.00;;
6505;SDS011;3286;49.858;8.768;2023-02-28T03:17:23;3.30;;;2.00;;
6505;SDS011;3286;49.858;8.768;2023-02-28T03:20:15;3.47;;;2.07;;
6505;SDS011;3286;49.858;8.768;2023-02-28T03:22:53;2.77;;;2.07;;
6505;SDS011;3286;49.858;8.768;2023-02-28T03:25:31;2.27;;;2.07;;
6505;SDS011;3286;49.858;8.768;2023-02-28T03:28:04;2.50;;;2.10;;
6505;SDS011;3286;49.858;8.768;2023-02-28T03:30:39;2.93;;;2.17;;
6505;SDS011;3286;49.858;8.768;2023-02-28T03:33:11;2.50;;;2.30;;
6505;SDS011;3286;49.858;8.768;2023-02-28T03:35:43;2.77;;;2.10;;
6505;SDS011;3286;49.858;8.768;2023-02-28T03:38:15;2.60;;;2.00;;
6505;SDS011;3286;49.858;8.768;2023-02-28T03:40:47;2.00;;;1.70;;
6505;SDS011;3286;49.858;8.768;2023-02-28T03:43:18;2.93;;;2.13;;
6505;SDS011;3286;49.858;8.768;2023-02-28T03:45:48;2.27;;;1.97;;
6505;SDS011;3286;49.858;8.768;2023-02-28T03:48:19;1.73;;;1.63;;
6505;SDS011;3286;49.858;8.768;2023-02-28T03:50:51;3.40;;;1.90;;
6505;SDS011;3286;49.858;8.768;2023-02-28T03:53:21;2.80;;;1.90;;
6505;SDS011;3286;49.858;8.768;2023-02-28T03:55:52;2.00;;;1.80;;
6505;SDS011;3286;49.858;8.768;2023-02-28T03:58:23;2.87;;;2.20;;
6505;SDS011;3286;49.858;8.768;2023-02-28T04:00:55;2.53;;;2.17;;
6505;SDS011;3286;49.858;8.768;2023-02-28T04:03:32;3.27;;;2.33;;
6505;SDS011;3286;49.858;8.768;2023-02-28T04:06:01;2.90;;;2.37;;
6505;SDS011;3286;49.858;8.768;2023-02-28T04:08:28;3.20;;;2.30;;
6505;SDS011;3286;49.858;8.768;2023-02-28T04:10:56;3.53;;;2.80;;
6505;SDS011;3286;49.858;8.768;2023-02-28T04:13:26;2.80;;;2.50;;
6505;SDS011;3286;49.858;8.768;2023-02-28T04:15:53;3.70;;;2.30;;
6505;SDS011;3286;49.858;8.768;2023-02-28T04:18:19;5.73;;;2.40;;
6505;SDS011;3286;49.858;8.768;2023-02-28T04:20:46;3.47;;;2.30;;
6505;SDS011;3286;49.858;8.768;2023-02-28T04:23:14;3.47;;;2.20;;
6505;SDS011;3286;49.858;8.768;2023-02-28T04:25:40;3.37;;;2.40;;
6505;SDS011;3286;49.858;8.768;2023-02-28T04:28:07;5.10;;;2.17;;
6505;SDS011;3286;49.858;8.768;2023-02-28T04:30:34;2.80;;;2.20;;
6505;SDS011;3286;49.858;8.768;2023-02-28T04:33:01;3.87;;;2.10;;
6505;SDS011;3286;49.858;8.768;2023-02-28T04:35:28;5.20;;;2.50;;
6505;SDS011;3286;49.858;8.768;2023-02-28T04:37:54;3.07;;;2.40;;
6505;SDS011;3286;49.858;8.768;2023-02-28T04:40:22;2.63;;;2.20;;
6505;SDS011;3286;49.858;8.768;2023-02-28T04:42:49;2.27;;;2.03;;
6505;SDS011;3286;49.858;8.768;2023-02-28T04:45:15;3.03;;;2.30;;
6505;SDS011;3286;49.858;8.768;2023-02-28T04:47:42;4.27;;;2.60;;
6505;SDS011;3286;49.858;8.768;2023-02-28T04:50:09;6.07;;;2.20;;
6505;SDS011;3286;49.858;8.768;2023-02-28T04:52:36;4.87;;;2.10;;
6505;SDS011;3286;49.858;8.768;2023-02-28T04:55:03;6.37;;;2.40;;
6505;SDS011;3286;49.858;8.768;2023-02-28T04:57:31;4.03;;;2.57;;
6505;SDS011;3286;49.858;8.768;2023-02-28T04:59:58;3.47;;;2.30;;
6505;SDS011;3286;49.858;8.768;2023-02-28T05:02:25;2.97;;;1.97;;
6505;SDS011;3286;49.858;8.768;2023-02-28T05:04:51;3.07;;;2.37;;
6505;SDS011;3286;49.858;8.768;2023-02-28T05:07:18;5.50;;;2.30;;
6505;SDS011;3286;49.858;8.768;2023-02-28T05:09:44;2.50;;;2.17;;
6505;SDS011;3286;49.858;8.768;2023-02-28T05:12:11;3.77;;;2.33;;
6505;SDS011;3286;49.858;8.768;2023-02-28T05:14:39;3.60;;;2.27;;
6505;SDS011;3286;49.858;8.768;2023-02-28T05:17:06;2.60;;;2.00;;
6505;SDS011;3286;49.858;8.768;2023-02-28T05:19:32;3.90;;;2.30;;
6505;SDS011;3286;49.858;8.768;2023-02-28T05:21:59;2.73;;;2.10;;
6505;SDS011;3286;49.858;8.768;2023-02-28T05:24:25;3.87;;;2.13;;
6505;SDS011;3286;49.858;8.768;2023-02-28T05:26:52;3.40;;;2.50;;
6505;SDS011;3286;49.858;8.768;2023-02-28T05:29:20;3.37;;;2.57;;
6505;SDS011;3286;49.858;8.768;2023-02-28T05:31:48;6.03;;;2.27;;
6505;SDS011;3286;49.858;8.768;2023-02-28T05:34:15;3.60;;;2.63;;
6505;SDS011;3286;49.858;8.768;2023-02-28T05:36:41;3.77;;;2.57;;
6505;SDS011;3286;49.858;8.768;2023-02-28T05:39:08;2.93;;;2.00;;
6505;SDS011;3286;49.858;8.768;2023-02-28T05:41:38;4.43;;;2.53;;
6505;SDS011;3286;49.858;8.768;2023-02-28T05:44:05;14.43;;;3.70;;
6505;SDS011;3286;49.858;8.768;2023-02-28T05:46:32;10.37;;;2.97;;
6505;SDS011;3286;49.858;8.768;2023-02-28T05:49:00;5.80;;;2.30;;
6505;SDS011;3286;49.858;8.768;2023-02-28T05:51:26;6.30;;;2.60;;
6505;SDS011;3286;49.858;8.768;2023-02-28T05:53:53;9.20;;;3.20;;
6505;SDS011;3286;49.858;8.768;2023-02-28T05:56:21;7.63;;;2.47;;
6505;SDS011;3286;49.858;8.768;2023-02-28T05:58:48;7.53;;;2.53;;
6505;SDS011;3286;49.858;8.768;2023-02-28T06:01:21;11.80;;;2.53;;
6505;SDS011;3286;49.858;8.768;2023-02-28T06:03:50;3.63;;;2.30;;
6505;SDS011;3286;49.858;8.768;2023-02-28T06:06:18;4.23;;;2.43;;
6505;SDS011;3286;49.858;8.768;2023-02-28T06:08:45;3.43;;;2.20;;
6505;SDS011;3286;49.858;8.768;2023-02-28T06:11:11;3.20;;;2.37;;
6505;SDS011;3286;49.858;8.768;2023-02-28T06:13:38;3.13;;;2.40;;
6505;SDS011;3286;49.858;8.768;2023-02-28T06:16:05;3.80;;;2.60;;
6505;SDS011;3286;49.858;8.768;2023-02-28T06:18:32;3.20;;;2.23;;
6505;SDS011;3286;49.858;8.768;2023-02-28T06:20:59;2.97;;;2.20;;
6505;SDS011;3286;49.858;8.768;2023-02-28T06:23:27;4.53;;;2.60;;
6505;SDS011;3286;49.858;8.768;2023-02-28T06:25:54;4.40;;;2.63;;
6505;SDS011;3286;49.858;8.768;2023-02-28T06:28:23;2.90;;;2.20;;
6505;SDS011;3286;49.858;8.768;2023-02-28T06:30:50;5.87;;;3.47;;
6505;SDS011;3286;49.858;8.768;2023-02-28T06:33:16;4.93;;;2.83;;
6505;SDS011;3286;49.858;8.768;2023-02-28T06:35:43;9.00;;;2.97;;
6505;SDS011;3286;49.858;8.768;2023-02-28T06:38:10;4.00;;;2.80;;
6505;SDS011;3286;49.858;8.768;2023-02-28T06:40:38;6.20;;;2.70;;
6505;SDS011;3286;49.858;8.768;2023-02-28T06:43:05;3.70;;;2.77;;
6505;SDS011;3286;49.858;8.768;2023-02-28T06:45:32;12.80;;;4.83;;
6505;SDS011;3286;49.858;8.768;2023-02-28T06:47:58;4.97;;;2.90;;
6505;SDS011;3286;49.858;8.768;2023-02-28T06:50:25;4.80;;;2.70;;
6505;SDS011;3286;49.858;8.768;2023-02-28T06:52:54;5.27;;;2.93;;
6505;SDS011;3286;49.858;8.768;2023-02-28T06:55:21;4.20;;;2.77;;
6505;SDS011;3286;49.858;8.768;2023-02-28T06:57:49;4.40;;;2.93;;
6505;SDS011;3286;49.858;8.768;2023-02-28T07:00:16;5.97;;;2.80;;
6505;SDS011;3286;49.858;8.768;2023-02-28T07:02:43;12.20;;;4.47;;
6505;SDS011;3286;49.858;8.768;2023-02-28T07:05:10;3.57;;;2.40;;
6505;SDS011;3286;49.858;8.768;2023-02-28T07:07:36;3.87;;;2.90;;
6505;SDS011;3286;49.858;8.768;2023-02-28T07:10:06;4.03;;;2.70;;
6505;SDS011;3286;49.858;8.768;2023-02-28T07:12:33;4.67;;;2.63;;
6505;SDS011;3286;49.858;8.768;2023-02-28T07:15:01;3.90;;;2.83;;
6505;SDS011;3286;49.858;8.768;2023-02-28T07:17:28;4.77;;;2.90;;
6505;SDS011;3286;49.858;8.768;2023-02-28T07:19:54;3.83;;;2.93;;
6505;SDS011;3286;49.858;8.768;2023-02-28T07:22:21;7.40;;;3.50;;
6505;SDS011;3286;49.858;8.768;2023-02-28T07:24:48;4.07;;;2.70;;
6505;SDS011;3286;49.858;8.768;2023-02-28T07:27:14;4.07;;;3.27;;
6505;SDS011;3286;49.858;8.768;2023-02-28T07:29:48;5.63;;;3.27;;
6505;SDS011;3286;49.858;8.768;2023-02-28T07:32:16;6.80;;;3.20;;
6505;SDS011;3286;49.858;8.768;2023-02-28T07:34:43;7.30;;;3.17;;
6505;SDS011;3286;49.858;8.768;2023-02-28T07:37:10;6.40;;;2.90;;
6505;SDS011;3286;49.858;8.768;2023-02-28T07:39:37;6.27;;;3.87;;
6505;SDS011;3286;49.858;8.768;2023-02-28T07:42:04;5.40;;;2.73;;
6505;SDS011;3286;49.858;8.768;2023-02-28T07:44:31;4.83;;;2.90;;
6505;SDS011;3286;49.858;8.768;2023-02-28T07:46:57;4.40;;;2.90;;
6505;SDS011;3286;49.858;8.768;2023-02-28T07:49:25;3.70;;;2.53;;
6505;SDS011;3286;49.858;8.768;2023-02-28T07:51:52;3.40;;;2.70;;
6505;SDS011;3286;49.858;8.768;2023-02-28T07:54:19;5.60;;;3.07;;
6505;SDS011;3286;49.858;8.768;2023-02-28T07:56:45;4.40;;;2.93;;
6505;SDS011;3286;49.858;8.768;2023-02-28T07:59:12;3.50;;;2.43;;
6505;SDS011;3286;49.858;8.768;2023-02-28T08:01:38;3.17;;;2.43;;
6505;SDS011;3286;49.858;8.768;2023-02-28T08:04:05;2.80;;;2.40;;
6505;SDS011;3286;49.858;8.768;2023-02-28T08:06:33;2.77;;;2.20;;
6505;SDS011;3286;49.858;8.768;2023-02-28T08:09:00;3.73;;;2.60;;
6505;SDS011;3286;49.858;8.768;2023-02-28T08:11:26;3.00;;;2.10;;
6505;SDS011;3286;49.858;8.768;2023-02-28T08:13:54;2.57;;;2.00;;
6505;SDS011;3286;49.858;8.768;2023-02-28T08:16:21;5.97;;;2.17;;
6505;SDS011;3286;49.858;8.768;2023-02-28T08:18:48;2.90;;;2.10;;
6505;SDS011;3286;49.858;8.768;2023-02-28T08:21:15;6.27;;;2.90;;
6505;SDS011;3286;49.858;8.768;2023-02-28T08:23:43;3.87;;;2.00;;
6505;SDS011;3286;49.858;8.768;2023-02-28T08:26:12;3.17;;;2.30;;
6505;SDS011;3286;49.858;8.768;2023-02-28T08:28:38;3.90;;;2.20;;
6505;SDS011;3286;49.858;8.768;2023-02-28T08:31:08;3.50;;;2.23;;
6505;SDS011;3286;49.858;8.768;2023-02-28T08:33:36;4.00;;;2.33;;
6505;SDS011;3286;49.858;8.768;2023-02-28T08:36:04;3.00;;;2.40;;
6505;SDS011;3286;49.858;8.768;2023-02-28T08:38:31;4.07;;;2.47;;
6505;SDS011;3286;49.858;8.768;2023-02-28T08:41:00;4.40;;;2.70;;
6505;SDS011;3286;49.858;8.768;2023-02-28T08:43:28;5.27;;;2.33;;
6505;SDS011;3286;49.858;8.768;2023-02-28T08:45:55;2.90;;;2.23;;
6505;SDS011;3286;49.858;8.768;2023-02-28T08:48:22;3.13;;;2.43;;
6505;SDS011;3286;49.858;8.768;2023-02-28T08:50:56;5.30;;;2.60;;
6505;SDS011;3286;49.858;8.768;2023-02-28T08:53:23;4.07;;;2.63;;
6505;SDS011;3286;49.858;8.768;2023-02-28T08:55:56;6.07;;;2.93;;
6505;SDS011;3286;49.858;8.768;2023-02-28T08:58:25;4.53;;;3.10;;
6505;SDS011;3286;49.858;8.768;2023-02-28T09:00:52;6.20;;;3.17;;
6505;SDS011;3286;49.858;8.768;2023-02-28T09:03:20;4.60;;;2.80;;
6505;SDS011;3286;49.858;8.768;2023-02-28T09:05:57;3.40;;;2.70;;
6505;SDS011;3286;49.858;8.768;2023-02-28T09:08:24;5.13;;;3.40;;
6505;SDS011;3286;49.858;8.768;2023-02-28T09:10:52;5.63;;;3.17;;
6505;SDS011;3286;49.858;8.768;2023-02-28T09:13:22;4.17;;;2.97;;
6505;SDS011;3286;49.858;8.768;2023-02-28T09:15:50;6.77;;;3.00;;
6505;SDS011;3286;49.858;8.768;2023-02-28T09:18:16;3.93;;;2.83;;
6505;SDS011;3286;49.858;8.768;2023-02-28T09:20:43;8.67;;;4.30;;
6505;SDS011;3286;49.858;8.768;2023-02-28T09:23:10;3.83;;;3.00;;
6505;SDS011;3286;49.858;8.768;2023-02-28T09:25:40;4.37;;;3.23;;
6505;SDS011;3286;49.858;8.768;2023-02-28T09:28:11;5.00;;;3.57;;
6505;SDS011;3286;49.858;8.768;2023-02-28T09:30:39;5.63;;;3.23;;
6505;SDS011;3286;49.858;8.768;2023-02-28T09:33:07;6.20;;;3.07;;
6505;SDS011;3286;49.858;8.768;2023-02-28T09:35:34;4.80;;;3.33;;
6505;SDS011;3286;49.858;8.768;2023-02-28T09:38:02;4.33;;;3.07;;
6505;SDS011;3286;49.858;8.768;2023-02-28T09:40:28;5.90;;;3.27;;
6505;SDS011;3286;49.858;8.768;2023-02-28T09:42:57;5.17;;;3.27;;
6505;SDS011;3286;49.858;8.768;2023-02-28T09:45:27;5.83;;;3.23;;
6505;SDS011;3286;49.858;8.768;2023-02-28T09:47:58;5.13;;;3.73;;
6505;SDS011;3286;49.858;8.768;2023-02-28T09:50:32;4.27;;;3.57;;
6505;SDS011;3286;49.858;8.768;2023-02-28T09:53:06;5.23;;;3.40;;
6505;SDS011;3286;49.858;8.768;2023-02-28T09:55:43;6.57;;;3.50;;
6505;SDS011;3286;49.858;8.768;2023-02-28T09:58:16;4.97;;;3.30;;
6505;SDS011;3286;49.858;8.768;2023-02-28T10:00:50;6.37;;;3.40;;
6505;SDS011;3286;49.858;8.768;2023-02-28T10:03:27;4.37;;;3.20;;
6505;SDS011;3286;49.858;8.768;2023-02-28T10:06:01;5.17;;;3.20;;
6505;SDS011;3286;49.858;8.768;2023-02-28T10:08:36;7.27;;;4.00;;
6505;SDS011;3286;49.858;8.768;2023-02-28T10:11:11;4.70;;;3.63;;
6505;SDS011;3286;49.858;8.768;2023-02-28T10:13:44;4.50;;;2.97;;
6505;SDS011;3286;49.858;8.768;2023-02-28T10:16:17;8.33;;;3.70;;
6505;SDS011;3286;49.858;8.768;2023-02-28T10:18:50;4.97;;;3.60;;
6505;SDS011;3286;49.858;8.768;2023-02-28T10:21:21;5.10;;;3.27;;
6505;SDS011;3286;49.858;8.768;2023-02-28T10:23:56;4.13;;;2.93;;
6505;SDS011;3286;49.858;8.768;2023-02-28T10:26:29;4.27;;;2.80;;
6505;SDS011;3286;49.858;8.768;2023-02-28T10:28:57;4.30;;;3.17;;
6505;SDS011;3286;49.858;8.768;2023-02-28T10:31:24;6.53;;;3.50;;
6505;SDS011;3286;49.858;8.768;2023-02-28T10:33:51;5.43;;;3.27;;
6505;SDS011;3286;49.858;8.768;2023-02-28T10:36:18;6.87;;;3.57;;
6505;SDS011;3286;49.858;8.768;2023-02-28T10:38:47;4.93;;;3.20;;
6505;SDS011;3286;49.858;8.768;2023-02-28T10:41:15;3.30;;;2.90;;
6505;SDS011;3286;49.858;8.768;2023-02-28T10:43:52;4.40;;;3.03;;
6505;SDS011;3286;49.858;8.768;2023-02-28T10:46:37;7.50;;;3.17;;
6505;SDS011;3286;49.858;8.768;2023-02-28T10:49:06;3.77;;;2.77;;
6505;SDS011;3286;49.858;8.768;2023-02-28T10:51:41;3.93;;;2.87;;
6505;SDS011;3286;49.858;8.768;2023-02-28T10:54:14;4.60;;;3.10;;
6505;SDS011;3286;49.858;8.768;2023-02-28T10:56:42;6.43;;;3.20;;
6505;SDS011;3286;49.858;8.768;2023-02-28T10:59:22;4.27;;;3.10;;
6505;SDS011;3286;49.858;8.768;2023-02-28T11:01:53;4.60;;;3.20;;
6505;SDS011;3286;49.858;8.768;2023-02-28T11:04:31;4.20;;;3.13;;
6505;SDS011;3286;49.858;8.768;2023-02-28T11:07:03;6.60;;;3.17;;
6505;SDS011;3286;49.858;8.768;2023-02-28T11:09:32;5.27;;;3.47;;
6505;SDS011;3286;49.858;8.768;2023-02-28T11:12:00;5.47;;;3.50;;
6505;SDS011;3286;49.858;8.768;2023-02-28T11:14:31;7.37;;;3.87;;
6505;SDS011;3286;49.858;8.768;2023-02-28T11:17:13;4.93;;;3.63;;
6505;SDS011;3286;49.858;8.768;2023-02-28T11:19:45;5.43;;;3.70;;
6505;SDS011;3286;49.858;8.768;2023-02-28T11:22:17;5.10;;;3.60;;
6505;SDS011;3286;49.858;8.768;2023-02-28T11:24:47;5.13;;;3.60;;
6505;SDS011;3286;49.858;8.768;2023-02-28T11:32:55;5.53;;;3.30;;
6505;SDS011;3286;49.858;8.768;2023-02-28T11:35:23;5.07;;;3.50;;
6505;SDS011;3286;49.858;8.768;2023-02-28T11:37:53;4.53;;;3.47;;
6505;SDS011;3286;49.858;8.768;2023-02-28T11:40:22;5.63;;;3.70;;
6505;SDS011;3286;49.858;8.768;2023-02-28T11:42:56;4.60;;;3.60;;
6505;SDS011;3286;49.858;8.768;2023-02-28T11:45:36;8.33;;;3.60;;
6505;SDS011;3286;49.858;8.768;2023-02-28T11:48:20;6.17;;;3.70;;
6505;SDS011;3286;49.858;8.768;2023-02-28T11:50:52;6.10;;;3.90;;
6505;SDS011;3286;49.858;8.768;2023-02-28T11:53:35;5.43;;;3.37;;
6505;SDS011;3286;49.858;8.768;2023-02-28T11:56:15;6.03;;;3.77;;
6505;SDS011;3286;49.858;8.768;2023-02-28T11:58:52;4.70;;;3.53;;
6505;SDS011;3286;49.858;8.768;2023-02-28T12:01:28;3.70;;;3.30;;
6505;SDS011;3286;49.858;8.768;2023-02-28T12:04:10;4.60;;;3.37;;
6505;SDS011;3286;49.858;8.768;2023-02-28T12:06:44;4.93;;;3.60;;
6505;SDS011;3286;49.858;8.768;2023-02-28T12:09:23;6.00;;;3.90;;
6505;SDS011;3286;49.858;8.768;2023-02-28T12:12:02;5.07;;;3.83;;
6505;SDS011;3286;49.858;8.768;2023-02-28T12:14:44;5.83;;;3.73;;
6505;SDS011;3286;49.858;8.768;2023-02-28T12:17:22;5.77;;;3.90;;
6505;SDS011;3286;49.858;8.768;2023-02-28T12:20:05;4.60;;;3.60;;
6505;SDS011;3286;49.858;8.768;2023-02-28T12:22:43;4.67;;;3.90;;
6505;SDS011;3286;49.858;8.768;2023-02-28T12:25:28;6.03;;;3.97;;
6505;SDS011;3286;49.858;8.768;2023-02-28T12:28:09;4.40;;;3.30;;
6505;SDS011;3286;49.858;8.768;2023-02-28T12:30:38;5.20;;;3.70;;
6505;SDS011;3286;49.858;8.768;2023-02-28T12:33:12;5.90;;;3.90;;
6505;SDS011;3286;49.858;8.768;2023-02-28T12:35:43;4.67;;;3.37;;
6505;SDS011;3286;49.858;8.768;2023-02-28T12:38:18;6.50;;;3.60;;
6505;SDS011;3286;49.858;8.768;2023-02-28T12:40:50;5.50;;;3.77;;
6505;SDS011;3286;49.858;8.768;2023-02-28T12:46:09;5.77;;;3.97;;
6505;SDS011;3286;49.858;8.768;2023-02-28T12:48:39;6.27;;;3.83;;
6505;SDS011;3286;49.858;8.768;2023-02-28T12:51:08;6.63;;;3.70;;
6505;SDS011;3286;49.858;8.768;2023-02-28T12:53:40;6.30;;;3.97;;
6505;SDS011;3286;49.858;8.768;2023-02-28T12:56:22;5.20;;;3.60;;
6505;SDS011;3286;49.858;8.768;2023-02-28T12:58:58;6.90;;;4.50;;
6505;SDS011;3286;49.858;8.768;2023-02-28T13:01:33;4.73;;;3.90;;
6505;SDS011;3286;49.858;8.768;2023-02-28T13:07:41;5.77;;;3.73;;
6505;SDS011;3286;49.858;8.768;2023-02-28T13:10:21;6.43;;;3.87;;
6505;SDS011;3286;49.858;8.768;2023-02-28T13:12:49;6.03;;;3.93;;
6505;SDS011;3286;49.858;8.768;2023-02-28T13:15:18;4.87;;;3.73;;
6505;SDS011;3286;49.858;8.768;2023-02-28T13:17:49;5.57;;;3.90;;
6505;SDS011;3286;49.858;8.768;2023-02-28T13:20:19;6.20;;;4.10;;
6505;SDS011;3286;49.858;8.768;2023-02-28T13:22:48;4.60;;;3.40;;
6505;SDS011;3286;49.858;8.768;2023-02-28T13:31:26;6.87;;;3.90;;
6505;SDS011;3286;49.858;8.768;2023-02-28T13:34:12;5.53;;;3.80;;
6505;SDS011;3286;49.858;8.768;2023-02-28T13:36:40;6.00;;;4.47;;
6505;SDS011;3286;49.858;8.768;2023-02-28T13:42:22;5.63;;;4.17;;
6505;SDS011;3286;49.858;8.768;2023-02-28T13:47:53;6.17;;;4.10;;
6505;SDS011;3286;49.858;8.768;2023-02-28T13:50:23;5.67;;;4.27;;
6505;SDS011;3286;49.858;8.768;2023-02-28T13:53:00;5.37;;;3.83;;
6505;SDS011;3286;49.858;8.768;2023-02-28T13:55:43;6.77;;;3.97;;
6505;SDS011;3286;49.858;8.768;2023-02-28T13:58:22;5.40;;;3.90;;
6505;SDS011;3286;49.858;8.768;2023-02-28T14:01:03;5.73;;;3.83;;
6505;SDS011;3286;49.858;8.768;2023-02-28T14:03:52;5.20;;;4.00;;
6505;SDS011;3286;49.858;8.768;2023-02-28T14:06:28;6.50;;;4.17;;
6505;SDS011;3286;49.858;8.768;2023-02-28T14:08:58;6.07;;;4.30;;
6505;SDS011;3286;49.858;8.768;2023-02-28T14:11:30;5.93;;;4.07;;
6505;SDS011;3286;49.858;8.768;2023-02-28T14:13:58;6.40;;;4.30;;
6505;SDS011;3286;49.858;8.768;2023-02-28T14:16:26;5.00;;;3.60;;
6505;SDS011;3286;49.858;8.768;2023-02-28T14:19:03;5.67;;;4.03;;
6505;SDS011;3286;49.858;8.768;2023-02-28T14:21:39;8.23;;;4.30;;
6505;SDS011;3286;49.858;8.768;2023-02-28T14:24:23;5.73;;;3.67;;
6505;SDS011;3286;49.858;8.768;2023-02-28T14:27:04;5.37;;;4.00;;
6505;SDS011;3286;49.858;8.768;2023-02-28T14:29:45;6.50;;;4.30;;
6505;SDS011;3286;49.858;8.768;2023-02-28T14:32:44;6.97;;;3.80;;
6505;SDS011;3286;49.858;8.768;2023-02-28T14:35:35;5.13;;;3.80;;
6505;SDS011;3286;49.858;8.768;2023-02-28T14:38:13;6.33;;;3.70;;
6505;SDS011;3286;49.858;8.768;2023-02-28T14:40:43;7.90;;;3.87;;
6505;SDS011;3286;49.858;8.768;2023-02-28T14:43:19;8.53;;;4.10;;
6505;SDS011;3286;49.858;8.768;2023-02-28T14:45:49;5.63;;;4.07;;
6505;SDS011;3286;49.858;8.768;2023-02-28T14:48:18;7.53;;;3.80;;
6505;SDS011;3286;49.858;8.768;2023-02-28T14:50:49;13.70;;;6.67;;
6505;SDS011;3286;49.858;8.768;2023-02-28T14:53:18;6.03;;;4.10;;
6505;SDS011;3286;49.858;8.768;2023-02-28T14:55:47;4.70;;;3.50;;
6505;SDS011;3286;49.858;8.768;2023-02-28T14:58:21;6.27;;;4.17;;
6505;SDS011;3286;49.858;8.768;2023-02-28T15:00:50;5.83;;;4.00;;
6505;SDS011;3286;49.858;8.768;2023-02-28T15:03:19;7.10;;;4.27;;
6505;SDS011;3286;49.858;8.768;2023-02-28T15:05:55;6.43;;;4.47;;
6505;SDS011;3286;49.858;8.768;2023-02-28T15:08:23;6.93;;;4.77;;
6505;SDS011;3286;49.858;8.768;2023-02-28T15:10:51;6.07;;;3.90;;
6505;SDS011;3286;49.858;8.768;2023-02-28T15:13:20;6.70;;;4.13;;
6505;SDS011;3286;49.858;8.768;2023-02-28T15:15:48;7.00;;;4.80;;
6505;SDS011;3286;49.858;8.768;2023-02-28T15:18:23;8.13;;;4.90;;
6505;SDS011;3286;49.858;8.768;2023-02-28T15:20:57;6.17;;;3.60;;
6505;SDS011;3286;49.858;8.768;2023-02-28T15:23:27;6.90;;;4.10;;
6505;SDS011;3286;49.858;8.768;2023-02-28T15:25:54;4.83;;;3.27;;
6505;SDS011;3286;49.858;8.768;2023-02-28T15:28:22;6.30;;;4.00;;
6505;SDS011;3286;49.858;8.768;2023-02-28T15:30:51;5.07;;;3.67;;
6505;SDS011;3286;49.858;8.768;2023-02-28T15:33:21;6.20;;;3.90;;
6505;SDS011;3286;49.858;8.768;2023-02-28T15:35:49;6.57;;;3.93;;
6505;SDS011;3286;49.858;8.768;2023-02-28T15:38:18;6.50;;;4.87;;
6505;SDS011;3286;49.858;8.768;2023-02-28T15:40:52;7.27;;;4.10;;
6505;SDS011;3286;49.858;8.768;2023-02-28T15:43:23;6.00;;;3.53;;
6505;SDS011;3286;49.858;8.768;2023-02-28T15:45:52;5.97;;;3.87;;
6505;SDS011;3286;49.858;8.768;2023-02-28T15:48:24;4.93;;;3.80;;
6505;SDS011;3286;49.858;8.768;2023-02-28T15:50:54;5.30;;;3.70;;
6505;SDS011;3286;49.858;8.768;2023-02-28T15:53:25;5.60;;;3.53;;
6505;SDS011;3286;49.858;8.768;2023-02-28T15:55:55;4.83;;;3.50;;
6505;SDS011;3286;49.858;8.768;2023-02-28T15:58:26;5.37;;;3.80;;
6505;SDS011;3286;49.858;8.768;2023-02-28T16:01:06;8.43;;;4.17;;
6505;SDS011;3286;49.858;8.768;2023-02-28T16:03:43;6.50;;;3.90;;
6505;SDS011;3286;49.858;8.768;2023-02-28T16:09:06;5.53;;;3.60;;
6505;SDS011;3286;49.858;8.768;2023-02-28T16:11:36;5.93;;;4.20;;
6505;SDS011;3286;49.858;8.768;2023-02-28T16:14:06;7.17;;;4.17;;
6505;SDS011;3286;49.858;8.768;2023-02-28T16:16:33;5.37;;;3.57;;